createdAt,value
2022-08-17T00:00:02.852Z,979.3
2022-08-17T00:02:04.952Z,979.4
2022-08-17T00:04:09.352Z,979.4
2022-08-17T00:06:07.756Z,979.5
2022-08-17T00:08:09.611Z,979.3
2022-08-17T00:10:11.305Z,979.4
2022-08-17T00:12:42.387Z,979.3
2022-08-17T00:14:13.417Z,979.4
2022-08-17T00:16:14.594Z,979.3
2022-08-17T00:19:00.370Z,979.4
2022-08-17T00:20:17.272Z,979.4
2022-08-17T00:22:33.459Z,979.3
2022-08-17T00:24:19.495Z,979.3
2022-08-17T00:26:34.852Z,979.3
2022-08-17T00:28:21.589Z,979.3
2022-08-17T00:33:10.449Z,979.3
2022-08-17T00:34:27.761Z,979.3
2022-08-17T00:36:27.294Z,979.4
2022-08-17T00:38:28.477Z,979.3
2022-08-17T00:40:39.962Z,979.2
2022-08-17T00:42:31.787Z,979.2
2022-08-17T00:44:33.316Z,979.2
2022-08-17T00:46:34.787Z,979.2
2022-08-17T00:48:35.885Z,979.1
2022-08-17T00:50:37.569Z,979.2
2022-08-17T00:52:39.157Z,979.1
2022-08-17T00:54:41.775Z,979.2
2022-08-17T00:58:42.976Z,979.2
2022-08-17T01:00:44.397Z,979.2
2022-08-17T01:02:45.735Z,979.2
2022-08-17T01:04:47.510Z,979.3
2022-08-17T01:06:48.704Z,979.3
2022-08-17T01:08:49.978Z,979.3
2022-08-17T01:10:57.771Z,979.2
2022-08-17T01:12:52.445Z,979.1
2022-08-17T01:14:53.393Z,979.1
2022-08-17T01:16:54.730Z,979.2
2022-08-17T01:18:56.315Z,979.2
2022-08-17T01:20:57.999Z,979.1
2022-08-17T01:22:59.828Z,979.1
2022-08-17T01:25:01.635Z,979.1
2022-08-17T01:27:03.473Z,979.1
2022-08-17T01:29:04.839Z,979.1
2022-08-17T01:31:06.221Z,979.1
2022-08-17T01:33:07.219Z,979.2
2022-08-17T01:35:08.441Z,979.2
2022-08-17T01:37:09.707Z,979.2
2022-08-17T01:39:10.738Z,979.2
2022-08-17T01:41:12.621Z,979.3
2022-08-17T01:43:13.429Z,979.2
2022-08-17T01:45:15.081Z,979.2
2022-08-17T01:47:16.101Z,979.1
2022-08-17T01:49:17.674Z,979.1
2022-08-17T01:51:18.591Z,979.2
2022-08-17T01:53:20.453Z,979.2
2022-08-17T01:55:24.651Z,979.2
2022-08-17T01:57:22.700Z,979.2
2022-08-17T01:58:06.530Z,979.2
2022-08-17T02:02:09.146Z,979.2
2022-08-17T02:04:10.544Z,979.2
2022-08-17T02:08:19.753Z,979.2
2022-08-17T02:10:18.997Z,979.2
2022-08-17T02:12:38.638Z,979.3
2022-08-17T02:14:17.582Z,979.2
2022-08-17T02:16:18.576Z,979.3
2022-08-17T02:18:19.632Z,979.2
2022-08-17T02:20:41.480Z,979.2
2022-08-17T02:22:22.161Z,979.3
2022-08-17T02:24:58.096Z,979.1
2022-08-17T02:26:25.706Z,979.1
2022-08-17T02:28:26.367Z,979.2
2022-08-17T02:31:00.419Z,979.1
2022-08-17T02:34:30.922Z,979.2
2022-08-17T02:36:32.011Z,979.2
2022-08-17T02:38:33.488Z,979.2
2022-08-17T02:40:35.065Z,979.2
2022-08-17T02:44:39.569Z,979.2
2022-08-17T02:46:39.102Z,979.2
2022-08-17T02:48:40.357Z,979.2
2022-08-17T02:50:41.576Z,979.1
2022-08-17T02:52:44.078Z,979.1
2022-08-17T02:54:44.777Z,979
2022-08-17T02:56:46.033Z,978.9
2022-08-17T02:58:47.178Z,978.9
2022-08-17T03:00:49.025Z,979
2022-08-17T03:02:50.721Z,979
2022-08-17T03:04:51.533Z,979
2022-08-17T03:06:52.614Z,979.1
2022-08-17T03:08:54.469Z,979.2
2022-08-17T03:10:55.791Z,979.2
2022-08-17T03:12:56.820Z,979
2022-08-17T03:14:58.571Z,979
2022-08-17T03:17:00.181Z,979
2022-08-17T03:19:01.845Z,979
2022-08-17T03:21:02.825Z,979
2022-08-17T03:23:04.140Z,979.1
2022-08-17T03:25:05.739Z,979.1
2022-08-17T03:27:07.172Z,979.1
2022-08-17T03:29:08.958Z,979.2
2022-08-17T03:33:11.153Z,979.2
2022-08-17T03:35:12.811Z,979.2
2022-08-17T03:37:14.072Z,979.2
2022-08-17T03:39:15.096Z,979.2
2022-08-17T03:41:16.368Z,979.2
2022-08-17T03:43:17.530Z,979.2
2022-08-17T03:45:19.312Z,979.3
2022-08-17T03:47:20.246Z,979.3
2022-08-17T03:49:21.228Z,979.3
2022-08-17T03:51:22.823Z,979.3
2022-08-17T03:53:24.707Z,979.2
2022-08-17T03:55:29.479Z,979.3
2022-08-17T03:57:28.366Z,979.3
2022-08-17T03:59:29.473Z,979.2
2022-08-17T04:01:30.698Z,979.3
2022-08-17T04:03:31.841Z,979.3
2022-08-17T04:05:34.493Z,979.3
2022-08-17T04:07:34.806Z,979.4
2022-08-17T04:09:35.806Z,979.3
2022-08-17T04:11:36.838Z,979.3
2022-08-17T04:13:38.645Z,979.2
2022-08-17T04:15:40.467Z,979.3
2022-08-17T04:17:41.629Z,979.3
2022-08-17T04:19:43.049Z,979.3
2022-08-17T04:21:44.548Z,979.3
2022-08-17T04:23:45.777Z,979.4
2022-08-17T04:25:46.813Z,979.4
2022-08-17T04:27:48.042Z,979.3
2022-08-17T04:29:54.494Z,979.4
2022-08-17T04:31:51.239Z,979.3
2022-08-17T04:33:53.007Z,979.4
2022-08-17T04:35:54.668Z,979.4
2022-08-17T04:37:56.127Z,979.4
2022-08-17T04:39:59.614Z,979.4
2022-08-17T04:41:59.015Z,979.5
2022-08-17T04:44:00.650Z,979.4
2022-08-17T04:46:01.971Z,979.4
2022-08-17T04:48:03.267Z,979.4
2022-08-17T04:50:04.993Z,979.4
2022-08-17T04:52:06.373Z,979.5
2022-08-17T04:54:07.456Z,979.5
2022-08-17T04:58:09.992Z,979.6
2022-08-17T05:00:11.227Z,979.7
2022-08-17T05:02:12.988Z,979.5
2022-08-17T05:04:21.197Z,979.6
2022-08-17T05:08:17.145Z,979.5
2022-08-17T05:10:18.227Z,979.6
2022-08-17T05:12:19.995Z,979.6
2022-08-17T05:14:21.678Z,979.6
2022-08-17T05:16:23.383Z,979.6
2022-08-17T05:18:24.945Z,979.6
2022-08-17T05:20:25.910Z,979.6
2022-08-17T05:22:27.738Z,979.5
2022-08-17T05:24:38.869Z,979.5
2022-08-17T05:26:30.509Z,979.5
2022-08-17T05:28:31.753Z,979.4
2022-08-17T05:30:33.461Z,979.4
2022-08-17T05:32:37.568Z,979.4
2022-08-17T05:34:36.229Z,979.5
2022-08-17T05:36:43.805Z,979.4
2022-08-17T05:38:39.255Z,979.4
2022-08-17T05:40:40.910Z,979.4
2022-08-17T05:42:42.350Z,979.4
2022-08-17T05:44:43.757Z,979.4
2022-08-17T05:46:45.358Z,979.4
2022-08-17T05:50:47.951Z,979.3
2022-08-17T05:52:49.855Z,979.3
2022-08-17T05:54:51.506Z,979.4
2022-08-17T05:56:53.141Z,979.4
2022-08-17T06:00:56.383Z,979.4
2022-08-17T06:02:58.030Z,979.4
2022-08-17T06:04:59.867Z,979.5
2022-08-17T06:07:00.910Z,979.6
2022-08-17T06:09:02.351Z,979.6
2022-08-17T06:11:03.200Z,979.6
2022-08-17T06:13:04.066Z,979.8
2022-08-17T06:15:04.865Z,979.9
2022-08-17T06:17:05.856Z,979.8
2022-08-17T06:19:06.791Z,979.8
2022-08-17T06:21:08.195Z,979.9
2022-08-17T06:23:09.875Z,979.9
2022-08-17T06:25:11.006Z,979.9
2022-08-17T06:27:12.526Z,979.9
2022-08-17T06:31:15.699Z,979.9
2022-08-17T06:33:17.297Z,979.8
2022-08-17T06:35:18.574Z,979.8
2022-08-17T06:39:21.538Z,979.8
2022-08-17T06:41:23.006Z,979.8
2022-08-17T06:43:24.421Z,979.8
2022-08-17T06:45:25.672Z,979.8
2022-08-17T06:47:28.283Z,979.8
2022-08-17T06:49:28.332Z,979.8
2022-08-17T06:51:29.845Z,979.9
2022-08-17T06:53:31.080Z,979.9
2022-08-17T06:55:35.868Z,980
2022-08-17T06:57:33.035Z,980
2022-08-17T06:59:53.019Z,980
2022-08-17T07:01:36.230Z,979.9
2022-08-17T07:03:37.080Z,979.9
2022-08-17T07:05:38.961Z,979.9
2022-08-17T07:07:39.916Z,980
2022-08-17T07:09:40.831Z,980
2022-08-17T07:11:41.690Z,979.9
2022-08-17T07:13:43.362Z,979.8
2022-08-17T07:15:44.760Z,979.9
2022-08-17T07:17:47.099Z,979.8
2022-08-17T07:19:47.447Z,979.9
2022-08-17T07:21:49.070Z,979.9
2022-08-17T07:23:50.503Z,980
2022-08-17T07:25:52.268Z,980
2022-08-17T07:27:53.790Z,980
2022-08-17T07:29:54.988Z,980
2022-08-17T07:31:55.918Z,980
2022-08-17T07:33:57.734Z,980.1
2022-08-17T07:35:59.118Z,980
2022-08-17T07:38:00.233Z,980.2
2022-08-17T07:40:15.669Z,980.2
2022-08-17T07:42:03.144Z,980.1
2022-08-17T07:44:04.451Z,980.1
2022-08-17T07:46:05.635Z,980
2022-08-17T07:48:07.122Z,980
2022-08-17T07:50:08.841Z,980
2022-08-17T07:52:24.841Z,979.9
2022-08-17T07:54:13.839Z,979.9
2022-08-17T07:56:12.936Z,979.9
2022-08-17T07:58:13.996Z,979.9
2022-08-17T08:00:16.249Z,979.8
2022-08-17T08:04:19.472Z,979.8
2022-08-17T08:06:19.074Z,980
2022-08-17T08:08:19.958Z,979.9
2022-08-17T08:10:21.282Z,979.9
2022-08-17T08:14:28.464Z,979.8
2022-08-17T08:16:25.206Z,979.8
2022-08-17T08:18:38.917Z,979.9
2022-08-17T08:20:47.690Z,979.8
2022-08-17T08:22:29.736Z,979.8
2022-08-17T08:24:30.956Z,979.9
2022-08-17T08:26:31.667Z,979.9
2022-08-17T08:28:33.183Z,979.9
2022-08-17T08:30:34.886Z,979.8
2022-08-17T08:32:35.660Z,979.8
2022-08-17T08:34:44.666Z,979.8
2022-08-17T08:36:56.601Z,979.8
2022-08-17T08:38:39.918Z,979.9
2022-08-17T08:40:40.836Z,979.9
2022-08-17T08:42:42.299Z,979.9
2022-08-17T08:44:59.185Z,979.9
2022-08-17T08:47:29.036Z,979.9
2022-08-17T08:49:59.352Z,979.9
2022-08-17T08:51:31.546Z,979.9
2022-08-17T08:53:32.371Z,980
2022-08-17T08:55:33.778Z,980.1
2022-08-17T08:57:35.919Z,980
2022-08-17T08:59:41.926Z,979.9
2022-08-17T09:01:38.349Z,979.9
2022-08-17T09:03:52.129Z,980
2022-08-17T09:05:40.463Z,979.9
2022-08-17T09:07:41.522Z,979.9
2022-08-17T09:09:42.615Z,980.1
2022-08-17T09:13:45.726Z,980.1
2022-08-17T09:15:47.339Z,980.1
2022-08-17T09:17:48.623Z,980
2022-08-17T09:19:49.855Z,980.1
2022-08-17T09:21:51.455Z,980
2022-08-17T09:23:52.269Z,980
2022-08-17T09:25:53.251Z,980.1
2022-08-17T09:27:54.549Z,980
2022-08-17T09:29:55.540Z,980
2022-08-17T09:31:56.847Z,980
2022-08-17T09:33:57.918Z,980
2022-08-17T09:35:59.212Z,980
2022-08-17T09:40:01.857Z,980
2022-08-17T09:42:02.996Z,979.9
2022-08-17T09:44:03.926Z,980
2022-08-17T09:46:04.998Z,980.1
2022-08-17T09:48:05.974Z,980.1
2022-08-17T09:50:07.592Z,980.1
2022-08-17T09:52:08.375Z,980.1
2022-08-17T09:56:10.511Z,980.1
2022-08-17T09:58:11.327Z,980.2
2022-08-17T10:00:12.456Z,980.3
2022-08-17T10:02:13.773Z,980.3
2022-08-17T10:04:17.743Z,980.3
2022-08-17T10:06:21.698Z,980.3
2022-08-17T10:08:17.855Z,980.2
2022-08-17T10:10:19.170Z,980.2
2022-08-17T10:12:20.708Z,980.3
2022-08-17T10:14:24.113Z,980.2
2022-08-17T10:16:23.656Z,980.1
2022-08-17T10:18:24.763Z,980.3
2022-08-17T10:20:25.681Z,980.3
2022-08-17T10:22:32.916Z,980.3
2022-08-17T10:24:27.721Z,980.3
2022-08-17T10:26:28.651Z,980.4
2022-08-17T10:28:30.476Z,980.3
2022-08-17T10:30:31.425Z,980.4
2022-08-17T10:32:33.210Z,980.3
2022-08-17T10:34:34.845Z,980.3
2022-08-17T10:36:35.801Z,980.3
2022-08-17T10:38:36.907Z,980.3
2022-08-17T10:40:38.286Z,980.3
2022-08-17T10:42:39.244Z,980.3
2022-08-17T10:44:41.173Z,980.3
2022-08-17T10:46:41.273Z,980.2
2022-08-17T10:48:42.769Z,980.4
2022-08-17T10:50:44.515Z,980.4
2022-08-17T10:52:46.255Z,980.5
2022-08-17T10:54:47.487Z,980.5
2022-08-17T10:56:48.372Z,980.6
2022-08-17T10:58:49.556Z,980.6
2022-08-17T11:00:50.440Z,980.6
2022-08-17T11:02:51.980Z,980.6
2022-08-17T11:04:52.677Z,980.5
2022-08-17T11:06:53.722Z,980.6
2022-08-17T11:08:55.020Z,980.6
2022-08-17T11:10:56.798Z,980.6
2022-08-17T11:12:57.963Z,980.7
2022-08-17T11:14:59.141Z,980.7
2022-08-17T11:17:00.607Z,980.8
2022-08-17T11:19:01.661Z,980.7
2022-08-17T11:21:03.411Z,980.8
2022-08-17T11:23:04.160Z,980.7
2022-08-17T11:25:05.046Z,980.7
2022-08-17T11:27:06.091Z,980.7
2022-08-17T11:29:07.586Z,980.7
2022-08-17T11:31:08.600Z,980.7
2022-08-17T11:33:09.880Z,980.7
2022-08-17T11:35:11.204Z,980.8
2022-08-17T11:37:12.501Z,980.6
2022-08-17T11:39:14.187Z,980.7
2022-08-17T11:41:15.717Z,980.8
2022-08-17T11:43:16.905Z,980.8
2022-08-17T11:45:19.532Z,980.7
2022-08-17T11:47:19.294Z,980.7
2022-08-17T11:49:20.970Z,980.7
2022-08-17T11:53:23.299Z,980.6
2022-08-17T11:55:34.942Z,980.8
2022-08-17T11:57:26.490Z,980.8
2022-08-17T11:59:27.555Z,980.8
2022-08-17T12:01:28.623Z,980.9
2022-08-17T12:03:29.548Z,980.8
2022-08-17T12:05:30.774Z,980.9
2022-08-17T12:07:31.639Z,980.9
2022-08-17T12:09:33.862Z,981.1
2022-08-17T12:11:55.005Z,981.1
2022-08-17T12:13:38.439Z,981.1
2022-08-17T12:15:37.479Z,981.2
2022-08-17T12:17:39.970Z,981.3
2022-08-17T12:19:39.358Z,981.3
2022-08-17T12:21:40.050Z,981.3
2022-08-17T12:23:41.086Z,981.2
2022-08-17T12:25:42.343Z,981.4
2022-08-17T12:29:45.222Z,981.4
2022-08-17T12:31:46.185Z,981.3
2022-08-17T12:33:47.677Z,981.4
2022-08-17T12:35:48.852Z,981.4
2022-08-17T12:37:50.053Z,981.3
2022-08-17T12:39:51.525Z,981.3
2022-08-17T12:41:52.704Z,981.3
2022-08-17T12:43:53.856Z,981.3
2022-08-17T12:45:55.508Z,981.3
2022-08-17T12:49:57.389Z,981.4
2022-08-17T12:51:58.875Z,981.3
2022-08-17T12:54:00.108Z,981.2
2022-08-17T12:56:01.372Z,981.1
2022-08-17T12:58:02.785Z,981.1
2022-08-17T13:00:03.752Z,981.2
2022-08-17T13:02:04.929Z,981.2
2022-08-17T13:04:06.249Z,981.2
2022-08-17T13:06:07.640Z,981.3
2022-08-17T13:08:08.688Z,981.3
2022-08-17T13:10:10.154Z,981.3
2022-08-17T13:12:11.517Z,981.2
2022-08-17T13:14:12.512Z,981.2
2022-08-17T13:16:13.747Z,981.2
2022-08-17T13:18:15.488Z,981.2
2022-08-17T13:20:16.983Z,981.1
2022-08-17T13:22:18.564Z,981.1
2022-08-17T13:24:19.708Z,981
2022-08-17T13:26:20.933Z,980.9
2022-08-17T13:28:29.827Z,981
2022-08-17T13:30:23.243Z,980.9
2022-08-17T13:34:26.599Z,980.8
2022-08-17T13:36:27.935Z,980.8
2022-08-17T13:38:28.447Z,980.7
2022-08-17T13:40:29.343Z,980.8
2022-08-17T13:42:30.890Z,980.8
2022-08-17T13:44:32.613Z,980.7
2022-08-17T13:46:33.709Z,980.6
2022-08-17T13:48:34.596Z,980.5
2022-08-17T13:50:37.089Z,980.5
2022-08-17T13:52:38.822Z,980.5
2022-08-17T13:54:39.922Z,980.5
2022-08-17T13:56:41.553Z,980.5
2022-08-17T13:58:42.707Z,980.5
2022-08-17T14:00:43.901Z,980.4
2022-08-17T14:02:45.164Z,980.3
2022-08-17T14:04:45.924Z,980.3
2022-08-17T14:06:51.647Z,980.2
2022-08-17T14:08:48.461Z,980.2
2022-08-17T14:10:49.648Z,980.3
2022-08-17T14:12:50.684Z,980.2
2022-08-17T14:14:52.038Z,980.2
2022-08-17T14:16:53.563Z,980.1
2022-08-17T14:18:56.481Z,980.1
2022-08-17T14:20:55.768Z,980.1
2022-08-17T14:22:56.931Z,980.1
2022-08-17T14:24:58.534Z,980
2022-08-17T14:26:59.792Z,980.1
2022-08-17T14:29:00.768Z,980.1
2022-08-17T14:31:02.091Z,980.1
2022-08-17T14:33:03.284Z,980
2022-08-17T14:35:04.768Z,979.9
2022-08-17T14:37:06.346Z,979.9
2022-08-17T14:39:07.383Z,979.8
2022-08-17T14:41:09.176Z,979.8
2022-08-17T14:43:10.406Z,979.7
2022-08-17T14:45:27.318Z,979.6
2022-08-17T14:47:12.688Z,979.5
2022-08-17T14:49:14.547Z,979.6
2022-08-17T14:51:16.321Z,979.5
2022-08-17T14:53:17.643Z,979.4
2022-08-17T14:55:19.669Z,979.4
2022-08-17T14:59:22.837Z,979.4
2022-08-17T15:01:23.668Z,979.4
2022-08-17T15:03:24.512Z,979.4
2022-08-17T15:05:25.911Z,979.5
2022-08-17T15:07:30.377Z,979.5
2022-08-17T15:09:27.890Z,979.5
2022-08-17T15:11:28.827Z,979.4
2022-08-17T15:15:31.442Z,979.6
2022-08-17T15:17:44.108Z,979.5
2022-08-17T15:19:33.875Z,979.6
2022-08-17T15:21:34.705Z,979.7
2022-08-17T15:23:36.040Z,979.7
2022-08-17T15:25:37.187Z,979.7
2022-08-17T15:27:38.765Z,979.6
2022-08-17T15:29:39.759Z,979.7
2022-08-17T15:30:23.460Z,979.7
2022-08-17T15:36:28.557Z,979.7
2022-08-17T15:38:29.496Z,979.6
2022-08-17T15:40:30.297Z,979.6
2022-08-17T15:42:31.711Z,979.5
2022-08-17T15:46:35.287Z,979.6
2022-08-17T15:48:35.884Z,979.6
2022-08-17T15:50:37.161Z,979.6
2022-08-17T15:52:38.244Z,979.6
2022-08-17T15:54:39.234Z,979.6
2022-08-17T15:56:40.362Z,979.6
2022-08-17T15:58:41.258Z,979.5
2022-08-17T16:00:52.116Z,979.5
2022-08-17T16:03:15.516Z,979.4
2022-08-17T16:08:48.907Z,979.6
2022-08-17T16:10:49.810Z,979.6
2022-08-17T16:12:51.384Z,979.6
2022-08-17T16:14:52.985Z,979.6
2022-08-17T16:16:54.162Z,979.7
2022-08-17T16:18:56.255Z,979.6
2022-08-17T16:20:56.691Z,979.6
2022-08-17T16:22:58.089Z,979.6
2022-08-17T16:24:59.365Z,979.5
2022-08-17T16:27:00.149Z,979.5
2022-08-17T16:29:01.595Z,979.4
2022-08-17T16:31:03.046Z,979.4
2022-08-17T16:33:04.039Z,979.4
2022-08-17T16:35:05.606Z,979.4
2022-08-17T16:37:06.568Z,979.5
2022-08-17T16:39:07.390Z,979.4
2022-08-17T16:41:09.093Z,979.5
2022-08-17T16:43:09.970Z,979.4
2022-08-17T16:45:10.789Z,979.4
2022-08-17T16:47:11.635Z,979.4
2022-08-17T16:49:13.498Z,979.4
2022-08-17T16:51:14.323Z,979.4
2022-08-17T16:53:15.628Z,979.4
2022-08-17T16:55:17.112Z,979.4
2022-08-17T16:57:17.917Z,979.4
2022-08-17T16:59:30.103Z,979.4
2022-08-17T17:01:20.014Z,979.4
2022-08-17T17:03:20.810Z,979.4
2022-08-17T17:05:21.951Z,979.4
2022-08-17T17:07:22.716Z,979.4
2022-08-17T17:09:23.803Z,979.5
2022-08-17T17:11:24.925Z,979.4
2022-08-17T17:13:26.512Z,979.4
2022-08-17T17:17:30.914Z,979.4
2022-08-17T17:19:34.714Z,979.4
2022-08-17T17:21:32.513Z,979.4
2022-08-17T17:23:34.246Z,979.4
2022-08-17T17:25:35.134Z,979.3
2022-08-17T17:27:36.161Z,979.3
2022-08-17T17:29:48.384Z,979.3
2022-08-17T17:31:39.094Z,979.3
2022-08-17T17:33:40.354Z,979.4
2022-08-17T17:35:42.000Z,979.3
2022-08-17T17:37:42.814Z,979.3
2022-08-17T17:39:44.609Z,979.4
2022-08-17T17:41:45.738Z,979.4
2022-08-17T17:43:47.195Z,979.4
2022-08-17T17:45:48.379Z,979.3
2022-08-17T17:47:50.229Z,979.4
2022-08-17T17:49:51.136Z,979.4
2022-08-17T17:52:02.021Z,979.3
2022-08-17T17:53:53.707Z,979.2
2022-08-17T17:55:55.171Z,979.3
2022-08-17T17:57:56.520Z,979.3
2022-08-17T17:59:57.371Z,979.3
2022-08-17T18:01:59.247Z,979.2
2022-08-17T18:06:01.788Z,979.1
2022-08-17T18:08:07.328Z,979.1
2022-08-17T18:10:04.421Z,979.1
2022-08-17T18:12:06.221Z,979.2
2022-08-17T18:14:07.574Z,979.2
2022-08-17T18:16:08.159Z,979.1
2022-08-17T18:18:09.142Z,979.2
2022-08-17T18:22:12.929Z,979.1
2022-08-17T18:24:13.211Z,979.1
2022-08-17T18:26:14.738Z,979.1
2022-08-17T18:28:16.481Z,979.1
2022-08-17T18:30:17.790Z,979.1
2022-08-17T18:32:19.172Z,979.1
2022-08-17T18:34:43.648Z,979.1
2022-08-17T18:36:22.256Z,979.1
2022-08-17T18:38:23.820Z,979.1
2022-08-17T18:40:24.732Z,979.1
2022-08-17T18:42:26.286Z,979.2
2022-08-17T18:46:29.804Z,979.3
2022-08-17T18:48:32.947Z,979.3
2022-08-17T18:50:31.811Z,979.2
2022-08-17T18:52:33.161Z,979.2
2022-08-17T18:54:34.448Z,979.3
2022-08-17T18:56:36.085Z,979.3
2022-08-17T18:58:37.883Z,979.3
2022-08-17T19:00:39.379Z,979.3
2022-08-17T19:04:41.342Z,979.4
2022-08-17T19:06:42.207Z,979.4
2022-08-17T19:08:43.279Z,979.4
2022-08-17T19:10:46.621Z,979.4
2022-08-17T19:12:45.762Z,979.4
2022-08-17T19:14:46.800Z,979.5
2022-08-17T19:16:47.883Z,979.4
2022-08-17T19:18:48.980Z,979.5
2022-08-17T19:20:49.881Z,979.4
2022-08-17T19:22:51.629Z,979.5
2022-08-17T19:24:56.210Z,979.5
2022-08-17T19:26:55.816Z,979.4
2022-08-17T19:28:54.947Z,979.5
2022-08-17T19:30:55.849Z,979.5
2022-08-17T19:32:57.330Z,979.5
2022-08-17T19:34:58.609Z,979.5
2022-08-17T19:36:59.490Z,979.5
2022-08-17T19:39:00.796Z,979.4
2022-08-17T19:41:02.073Z,979.5
2022-08-17T19:43:03.098Z,979.5
2022-08-17T19:47:06.010Z,979.4
2022-08-17T19:49:07.329Z,979.4
2022-08-17T19:51:09.028Z,979.3
2022-08-17T19:53:10.750Z,979.4
2022-08-17T19:55:11.658Z,979.4
2022-08-17T19:57:13.048Z,979.3
2022-08-17T19:59:14.399Z,979.4
2022-08-17T20:01:15.730Z,979.3
2022-08-17T20:03:17.234Z,979.3
2022-08-17T20:05:18.711Z,979.3
2022-08-17T20:07:19.570Z,979.3
2022-08-17T20:09:21.161Z,979.3
2022-08-17T20:11:22.316Z,979.3
2022-08-17T20:13:32.759Z,979.3
2022-08-17T20:15:25.477Z,979.3
2022-08-17T20:17:28.178Z,979.3
2022-08-17T20:19:27.826Z,979.3
2022-08-17T20:21:28.901Z,979.3
2022-08-17T20:23:29.891Z,979.3
2022-08-17T20:25:31.603Z,979.3
2022-08-17T20:27:33.442Z,979.4
2022-08-17T20:29:36.972Z,979.4
2022-08-17T20:31:36.163Z,979.4
2022-08-17T20:33:37.711Z,979.5
2022-08-17T20:35:39.519Z,979.5
2022-08-17T20:37:40.984Z,979.5
2022-08-17T20:39:42.255Z,979.5
2022-08-17T20:41:43.883Z,979.6
2022-08-17T20:43:45.540Z,979.6
2022-08-17T20:45:47.370Z,979.6
2022-08-17T20:48:07.719Z,979.6
2022-08-17T20:49:50.341Z,979.7
2022-08-17T20:51:54.626Z,979.6
2022-08-17T20:53:53.241Z,979.7
2022-08-17T20:55:55.050Z,979.7
2022-08-17T20:57:56.744Z,979.7
2022-08-17T20:59:58.099Z,979.8
2022-08-17T21:01:59.529Z,979.8
2022-08-17T21:04:00.556Z,979.8
2022-08-17T21:06:01.860Z,979.8
2022-08-17T21:08:03.350Z,979.8
2022-08-17T21:12:06.111Z,979.9
2022-08-17T21:14:07.625Z,979.8
2022-08-17T21:16:09.201Z,979.8
2022-08-17T21:18:10.129Z,979.9
2022-08-17T21:20:12.052Z,979.8
2022-08-17T21:22:12.795Z,979.9
2022-08-17T21:24:14.366Z,979.9
2022-08-17T21:26:15.678Z,979.9
2022-08-17T21:28:16.865Z,979.9
2022-08-17T21:30:18.260Z,979.9
2022-08-17T21:32:21.050Z,979.8
2022-08-17T21:34:20.295Z,979.9
2022-08-17T21:36:22.127Z,979.9
2022-08-17T21:38:23.358Z,980
2022-08-17T21:40:25.396Z,980
2022-08-17T21:42:26.674Z,979.9
2022-08-17T21:44:31.134Z,980
2022-08-17T21:46:29.682Z,980.1
2022-08-17T21:48:31.549Z,980
2022-08-17T21:50:32.962Z,980
2022-08-17T21:52:33.970Z,980
2022-08-17T21:54:35.246Z,980.1
2022-08-17T21:56:36.361Z,980.1
2022-08-17T21:58:37.462Z,980
2022-08-17T22:00:39.288Z,980
2022-08-17T22:02:40.789Z,980
2022-08-17T22:04:42.529Z,980
2022-08-17T22:06:52.468Z,980.1
2022-08-17T22:08:45.770Z,980.1
2022-08-17T22:10:46.694Z,980
2022-08-17T22:12:47.675Z,980.1
2022-08-17T22:14:52.027Z,980.1
2022-08-17T22:15:34.898Z,980.1
2022-08-17T22:17:33.710Z,980.1
2022-08-17T22:19:35.552Z,980.1
2022-08-17T22:21:36.829Z,980.1
2022-08-17T22:23:38.460Z,980.1
2022-08-17T22:25:40.204Z,980.1
2022-08-17T22:27:41.312Z,980.1
2022-08-17T22:29:42.410Z,980.2
2022-08-17T22:31:43.599Z,980.2
2022-08-17T22:33:45.368Z,980.2
2022-08-17T22:35:47.243Z,980.2
2022-08-17T22:37:48.849Z,980.2
2022-08-17T22:39:50.774Z,980.2
2022-08-17T22:41:52.217Z,980.3
2022-08-17T22:43:53.817Z,980.3
2022-08-17T22:47:57.276Z,980.3
2022-08-17T22:49:58.794Z,980.2
2022-08-17T22:52:00.210Z,980.3
2022-08-17T22:54:01.484Z,980.3
2022-08-17T22:56:02.333Z,980.3
2022-08-17T22:58:04.172Z,980.3
2022-08-17T23:00:05.603Z,980.3
2022-08-17T23:02:07.416Z,980.4
2022-08-17T23:04:08.494Z,980.3
2022-08-17T23:06:09.791Z,980.4
2022-08-17T23:08:11.421Z,980.4
2022-08-17T23:10:12.597Z,980.3
2022-08-17T23:12:14.275Z,980.3
2022-08-17T23:14:15.209Z,980.4
2022-08-17T23:16:16.898Z,980.4
2022-08-17T23:18:17.837Z,980.3
2022-08-17T23:20:18.875Z,980.2
2022-08-17T23:22:20.270Z,980.3
2022-08-17T23:24:21.806Z,980.3
2022-08-17T23:26:23.317Z,980.2
2022-08-17T23:28:25.103Z,980.3
2022-08-17T23:30:26.278Z,980.3
2022-08-17T23:32:27.201Z,980.3
2022-08-17T23:34:28.139Z,980.3
2022-08-17T23:36:29.612Z,980.4
2022-08-17T23:38:31.253Z,980.5
2022-08-17T23:40:32.143Z,980.6
2022-08-17T23:42:33.982Z,980.9
2022-08-17T23:46:36.841Z,981.2
2022-08-17T23:48:37.930Z,981.2
2022-08-17T23:50:39.152Z,981.2
2022-08-17T23:52:40.247Z,981.4
2022-08-17T23:54:41.424Z,981.3
2022-08-17T23:56:42.450Z,981.3
2022-08-17T23:58:44.150Z,981.5
